createdAt,value
2018-09-25T00:00:05.921Z,0.00
2018-09-25T00:01:06.049Z,0.00
2018-09-25T00:04:06.207Z,0.00
2018-09-25T00:06:05.867Z,0.00
2018-09-25T00:07:05.836Z,0.00
2018-09-25T00:08:05.821Z,0.00
2018-09-25T00:09:05.789Z,0.00
2018-09-25T00:10:05.819Z,0.00
2018-09-25T00:11:06.050Z,0.00
2018-09-25T00:12:05.724Z,0.00
2018-09-25T00:13:05.706Z,0.00
2018-09-25T00:14:05.682Z,0.00
2018-09-25T00:15:05.774Z,0.00
2018-09-25T00:16:05.639Z,0.00
2018-09-25T00:17:05.622Z,0.00
2018-09-25T00:18:05.894Z,0.00
2018-09-25T00:19:05.572Z,0.00
2018-09-25T00:20:05.556Z,0.00
2018-09-25T00:21:05.529Z,0.00
2018-09-25T00:22:05.504Z,0.00
2018-09-25T00:23:05.410Z,0.00
2018-09-25T00:24:05.386Z,0.00
2018-09-25T00:25:06.051Z,0.00
2018-09-25T00:26:05.354Z,0.00
2018-09-25T00:27:05.426Z,0.00
2018-09-25T00:28:05.298Z,0.00
2018-09-25T00:29:05.323Z,0.00
2018-09-25T00:30:05.255Z,0.00
2018-09-25T00:31:05.293Z,0.00
2018-09-25T00:32:05.509Z,0.00
2018-09-25T00:33:05.185Z,0.00
2018-09-25T00:34:05.314Z,0.00
2018-09-25T00:35:05.144Z,0.00
2018-09-25T00:36:05.111Z,0.00
2018-09-25T00:37:05.137Z,0.00
2018-09-25T00:38:05.365Z,0.00
2018-09-25T00:39:05.061Z,0.00
2018-09-25T00:40:05.025Z,0.00
2018-09-25T00:41:05.005Z,0.00
2018-09-25T00:42:04.982Z,0.00
2018-09-25T00:43:05.005Z,0.00
2018-09-25T00:44:05.233Z,0.00
2018-09-25T00:45:04.929Z,0.00
2018-09-25T00:46:04.900Z,0.00
2018-09-25T00:47:04.923Z,0.00
2018-09-25T00:48:04.843Z,0.00
2018-09-25T00:49:04.971Z,0.00
2018-09-25T00:50:05.102Z,0.00
2018-09-25T00:51:04.777Z,0.00
2018-09-25T00:52:04.759Z,0.00
2018-09-25T00:53:04.739Z,0.00
2018-09-25T00:54:04.722Z,0.00
2018-09-25T00:55:04.748Z,0.00
2018-09-25T00:56:04.974Z,0.00
2018-09-25T00:57:04.643Z,0.00
2018-09-25T00:59:04.599Z,0.00
2018-09-25T01:00:04.578Z,0.00
2018-09-25T01:01:04.856Z,0.00
2018-09-25T01:02:04.833Z,0.00
2018-09-25T01:03:04.511Z,0.00
2018-09-25T01:04:04.487Z,0.00
2018-09-25T01:05:04.466Z,0.00
2018-09-25T01:06:04.444Z,0.00
2018-09-25T01:07:04.481Z,0.00
2018-09-25T01:08:04.702Z,0.00
2018-09-25T01:09:04.378Z,0.00
2018-09-25T01:10:04.361Z,0.00
2018-09-25T01:11:04.334Z,0.00
2018-09-25T01:14:04.630Z,0.00
2018-09-25T01:15:04.256Z,0.00
2018-09-25T01:16:04.236Z,0.00
2018-09-25T01:18:04.193Z,0.00
2018-09-25T01:19:04.198Z,0.00
2018-09-25T01:20:04.300Z,0.00
2018-09-25T01:21:04.420Z,0.00
2018-09-25T01:23:04.069Z,0.00
2018-09-25T01:24:04.042Z,0.00
2018-09-25T01:25:04.024Z,0.00
2018-09-25T01:26:04.060Z,0.00
2018-09-25T01:27:03.986Z,0.00
2018-09-25T01:29:04.246Z,0.00
2018-09-25T01:30:03.916Z,0.00
2018-09-25T01:31:03.907Z,0.00
2018-09-25T01:32:04.174Z,0.00
2018-09-25T01:33:03.850Z,0.00
2018-09-25T01:34:03.886Z,0.00
2018-09-25T01:35:04.118Z,0.00
2018-09-25T01:36:04.079Z,0.00
2018-09-25T01:37:03.758Z,0.00
2018-09-25T01:38:03.782Z,0.00
2018-09-25T01:39:03.715Z,0.00
2018-09-25T01:40:03.695Z,0.00
2018-09-25T01:41:03.669Z,0.00
2018-09-25T01:42:03.668Z,0.00
2018-09-25T01:43:03.930Z,0.00
2018-09-25T01:44:03.659Z,0.00
2018-09-25T01:45:03.582Z,0.00
2018-09-25T01:46:03.634Z,0.00
2018-09-25T01:48:03.512Z,0.00
2018-09-25T01:49:03.509Z,0.00
2018-09-25T01:50:03.825Z,0.00
2018-09-25T01:51:03.455Z,0.00
2018-09-25T01:52:03.436Z,0.00
2018-09-25T01:53:03.403Z,0.00
2018-09-25T01:54:03.388Z,0.00
2018-09-25T01:55:03.375Z,0.00
2018-09-25T01:57:03.611Z,0.00
2018-09-25T01:58:03.300Z,0.00
2018-09-25T01:59:03.284Z,0.00
2018-09-25T02:00:03.252Z,0.00
2018-09-25T02:02:03.271Z,0.00
2018-09-25T02:03:03.180Z,0.00
2018-09-25T02:04:03.457Z,0.00
2018-09-25T02:05:03.140Z,0.00
2018-09-25T02:06:03.115Z,0.00
2018-09-25T02:07:03.094Z,0.00
2018-09-25T02:08:03.381Z,0.00
2018-09-25T02:09:03.059Z,0.00
2018-09-25T02:10:03.333Z,0.00
2018-09-25T02:11:03.008Z,0.00
2018-09-25T02:12:02.989Z,0.00
2018-09-25T02:13:02.961Z,0.00
2018-09-25T02:14:02.991Z,0.00
2018-09-25T02:15:02.912Z,0.00
2018-09-25T02:16:03.193Z,0.00
2018-09-25T02:17:02.868Z,0.00
2018-09-25T02:19:02.827Z,0.00
2018-09-25T02:20:02.860Z,0.00
2018-09-25T02:21:02.781Z,0.00
2018-09-25T02:22:03.060Z,0.00
2018-09-25T02:23:02.736Z,0.00
2018-09-25T02:24:02.714Z,0.00
2018-09-25T02:25:02.692Z,0.00
2018-09-25T02:26:02.719Z,0.00
2018-09-25T02:27:02.651Z,0.00
2018-09-25T02:28:02.927Z,0.00
2018-09-25T02:29:02.607Z,0.00
2018-09-25T02:30:02.642Z,0.00
2018-09-25T02:33:02.569Z,0.00
2018-09-25T02:35:02.781Z,0.00
2018-09-25T02:38:02.524Z,0.00
2018-09-25T02:39:02.686Z,0.00
2018-09-25T02:40:02.363Z,0.00
2018-09-25T02:41:02.347Z,0.00
2018-09-25T02:42:02.616Z,0.00
2018-09-25T02:43:02.290Z,0.00
2018-09-25T02:44:02.270Z,0.00
2018-09-25T02:45:02.304Z,0.00
2018-09-25T02:46:02.300Z,0.00
2018-09-25T02:47:02.203Z,0.00
2018-09-25T02:48:02.188Z,0.00
2018-09-25T02:49:02.462Z,0.00
2018-09-25T02:50:02.135Z,0.00
2018-09-25T02:51:02.175Z,0.00
2018-09-25T02:52:02.098Z,0.00
2018-09-25T02:53:02.073Z,0.00
2018-09-25T02:54:02.056Z,0.00
2018-09-25T02:55:02.034Z,0.00
2018-09-25T02:56:02.380Z,0.00
2018-09-25T02:57:02.137Z,0.00
2018-09-25T02:58:01.960Z,0.00
2018-09-25T02:59:01.937Z,0.00
2018-09-25T03:00:01.921Z,0.00
2018-09-25T03:01:01.896Z,0.00
2018-09-25T03:02:01.873Z,0.00
2018-09-25T03:03:02.195Z,0.00
2018-09-25T03:04:01.840Z,0.00
2018-09-25T03:06:01.786Z,0.00
2018-09-25T03:07:01.764Z,0.00
2018-09-25T03:08:01.756Z,0.00
2018-09-25T03:09:01.762Z,0.00
2018-09-25T03:10:01.994Z,0.00
2018-09-25T03:11:01.673Z,0.00
2018-09-25T03:12:01.656Z,0.00
2018-09-25T03:13:01.636Z,0.00
2018-09-25T03:14:01.602Z,0.00
2018-09-25T03:15:01.626Z,0.00
2018-09-25T03:16:01.555Z,0.00
2018-09-25T03:17:01.833Z,0.00
2018-09-25T03:18:01.518Z,0.00
2018-09-25T03:19:01.542Z,0.00
2018-09-25T03:20:01.466Z,0.00
2018-09-25T03:21:01.497Z,0.00
2018-09-25T03:22:01.522Z,0.00
2018-09-25T03:23:01.405Z,0.00
2018-09-25T03:25:01.357Z,0.00
2018-09-25T03:26:01.333Z,0.00
2018-09-25T03:27:01.361Z,0.00
2018-09-25T03:28:01.285Z,0.00
2018-09-25T03:29:01.260Z,0.00
2018-09-25T03:30:01.639Z,0.00
2018-09-25T03:31:01.215Z,0.00
2018-09-25T03:32:01.202Z,0.00
2018-09-25T03:33:01.393Z,0.00
2018-09-25T03:34:01.151Z,0.00
2018-09-25T03:35:01.136Z,0.00
2018-09-25T03:36:01.405Z,0.00
2018-09-25T03:37:01.090Z,0.00
2018-09-25T03:39:01.090Z,0.00
2018-09-25T03:40:01.020Z,0.00
2018-09-25T03:41:00.991Z,0.00
2018-09-25T03:42:01.270Z,0.00
2018-09-25T03:43:00.949Z,0.00
2018-09-25T03:44:00.932Z,0.00
2018-09-25T03:45:00.968Z,0.00
2018-09-25T03:46:00.889Z,0.00
2018-09-25T03:47:01.172Z,0.00
2018-09-25T03:48:01.143Z,0.00
2018-09-25T03:49:00.817Z,0.00
2018-09-25T03:50:00.793Z,0.00
2018-09-25T03:52:01.410Z,0.00
2018-09-25T03:53:00.728Z,0.00
2018-09-25T03:54:01.000Z,0.00
2018-09-25T03:55:00.784Z,0.00
2018-09-25T03:56:00.673Z,0.00
2018-09-25T03:57:00.633Z,0.00
2018-09-25T03:58:00.702Z,0.00
2018-09-25T03:59:00.596Z,0.00
2018-09-25T04:00:00.869Z,0.00
2018-09-25T04:01:00.548Z,0.00
2018-09-25T04:02:00.527Z,0.00
2018-09-25T04:03:00.503Z,0.00
2018-09-25T04:04:00.572Z,0.00
2018-09-25T04:05:00.464Z,0.00
2018-09-25T04:09:00.980Z,0.00
2018-09-25T04:11:00.329Z,0.00
2018-09-25T04:14:00.264Z,0.00
2018-09-25T04:15:00.667Z,0.00
2018-09-25T04:17:00.210Z,0.00
2018-09-25T04:18:00.166Z,0.00
2018-09-25T04:19:00.156Z,0.00
2018-09-25T04:20:00.117Z,0.00
2018-09-25T04:21:00.089Z,0.00
2018-09-25T04:22:00.422Z,0.00
2018-09-25T04:23:00.046Z,0.00
2018-09-25T04:24:00.029Z,0.00
2018-09-25T04:25:00.000Z,0.00
2018-09-25T04:25:59.982Z,0.00
2018-09-25T04:26:59.963Z,0.00
2018-09-25T04:29:00.265Z,0.00
2018-09-25T04:29:59.926Z,0.00
2018-09-25T04:30:59.866Z,0.00
2018-09-25T04:31:59.845Z,0.00
2018-09-25T04:32:59.830Z,0.00
2018-09-25T04:33:59.798Z,0.00
2018-09-25T04:34:59.824Z,0.00
2018-09-25T04:36:00.049Z,0.00
2018-09-25T04:36:59.745Z,0.00
2018-09-25T04:38:00.012Z,0.00
2018-09-25T04:38:59.789Z,0.00
2018-09-25T04:39:59.658Z,4.00
2018-09-25T04:40:59.695Z,0.00
2018-09-25T04:41:59.617Z,0.00
2018-09-25T04:42:59.903Z,4.00
2018-09-25T04:43:59.581Z,4.00
2018-09-25T04:44:59.838Z,4.00
2018-09-25T04:45:59.538Z,4.00
2018-09-25T04:46:59.854Z,4.00
2018-09-25T04:47:59.620Z,8.00
2018-09-25T04:48:59.460Z,8.00
2018-09-25T04:50:00.510Z,8.00
2018-09-25T04:50:59.493Z,8.00
2018-09-25T04:51:59.920Z,12.00
2018-09-25T04:52:59.422Z,16.00
2018-09-25T04:53:59.368Z,16.00
2018-09-25T04:54:59.402Z,16.00
2018-09-25T04:58:59.405Z,32.00
2018-09-25T04:59:59.226Z,36.00
2018-09-25T05:00:59.316Z,44.00
2018-09-25T05:01:59.194Z,52.00
2018-09-25T05:03:00.091Z,60.00
2018-09-25T05:04:00.493Z,64.00
2018-09-25T05:05:00.393Z,68.00
2018-09-25T05:05:59.954Z,72.00
2018-09-25T05:06:59.634Z,80.00
2018-09-25T05:07:59.501Z,84.00
2018-09-25T05:08:59.015Z,96.00
2018-09-25T05:09:59.295Z,104.00
2018-09-25T05:10:59.037Z,116.00
2018-09-25T05:11:58.969Z,124.00
2018-09-25T05:12:58.933Z,136.00
2018-09-25T05:15:00.159Z,156.00
2018-09-25T05:15:58.952Z,172.00
2018-09-25T05:16:59.266Z,184.00
2018-09-25T05:17:58.829Z,200.00
2018-09-25T05:18:58.798Z,224.00
2018-09-25T05:19:58.791Z,268.00
2018-09-25T05:22:59.066Z,328.00
2018-09-25T05:23:58.689Z,348.00
2018-09-25T05:24:58.792Z,352.00
2018-09-25T05:25:58.645Z,340.00
2018-09-25T05:26:58.627Z,328.00
2018-09-25T05:27:58.708Z,328.00
2018-09-25T05:28:58.633Z,340.00
2018-09-25T05:29:58.854Z,352.00
2018-09-25T05:30:58.589Z,364.00
2018-09-25T05:31:58.518Z,384.00
2018-09-25T05:32:58.493Z,400.00
2018-09-25T05:33:58.470Z,424.00
2018-09-25T05:34:58.497Z,444.00
2018-09-25T05:36:58.708Z,460.00
2018-09-25T05:37:58.389Z,468.00
2018-09-25T05:38:58.385Z,476.00
2018-09-25T05:39:58.339Z,500.00
2018-09-25T05:40:58.473Z,528.00
2018-09-25T05:41:58.295Z,552.00
2018-09-25T05:42:58.327Z,588.00
2018-09-25T05:43:58.568Z,620.00
2018-09-25T05:44:58.236Z,672.00
2018-09-25T05:45:58.306Z,708.00
2018-09-25T05:46:58.236Z,712.00
2018-09-25T05:48:58.172Z,688.00
2018-09-25T05:49:58.426Z,684.00
2018-09-25T05:50:58.100Z,684.00
2018-09-25T05:51:58.077Z,680.00
2018-09-25T05:52:58.112Z,672.00
2018-09-25T05:53:58.039Z,664.00
2018-09-25T05:54:58.017Z,668.00
2018-09-25T05:55:58.297Z,676.00
2018-09-25T05:56:58.252Z,684.00
2018-09-25T05:57:58.421Z,692.00
2018-09-25T05:58:57.995Z,700.00
2018-09-25T05:59:57.900Z,732.00
2018-09-25T06:00:57.933Z,804.00
2018-09-25T06:01:57.862Z,884.00
2018-09-25T06:02:58.143Z,932.00
2018-09-25T06:03:57.828Z,972.00
2018-09-25T06:04:57.847Z,1080.00
2018-09-25T06:05:57.775Z,1172.00
2018-09-25T06:06:57.757Z,1164.00
2018-09-25T06:08:58.017Z,1136.00
2018-09-25T06:09:57.693Z,1108.00
2018-09-25T06:10:57.720Z,1068.00
2018-09-25T06:11:57.707Z,1040.00
2018-09-25T06:14:57.578Z,1148.00
2018-09-25T06:15:57.860Z,1120.00
2018-09-25T06:16:57.585Z,1084.00
2018-09-25T06:17:57.549Z,1020.00
2018-09-25T06:18:57.504Z,952.00
2018-09-25T06:19:57.476Z,916.00
2018-09-25T06:20:57.482Z,900.00
2018-09-25T06:21:57.786Z,860.00
2018-09-25T06:22:57.494Z,872.00
2018-09-25T06:23:57.511Z,872.00
2018-09-25T06:24:57.495Z,876.00
2018-09-25T06:25:57.401Z,876.00
2018-09-25T06:26:57.539Z,868.00
2018-09-25T06:28:57.704Z,888.00
2018-09-25T06:29:57.272Z,920.00
2018-09-25T06:30:57.326Z,900.00
2018-09-25T06:31:57.298Z,924.00
2018-09-25T06:32:57.264Z,936.00
2018-09-25T06:33:57.997Z,948.00
2018-09-25T06:34:57.808Z,952.00
2018-09-25T06:35:57.183Z,968.00
2018-09-25T06:36:57.251Z,968.00
2018-09-25T06:37:57.159Z,972.00
2018-09-25T06:38:57.073Z,968.00
2018-09-25T06:39:57.323Z,968.00
2018-09-25T06:40:57.435Z,976.00
2018-09-25T06:41:57.071Z,996.00
2018-09-25T06:42:57.009Z,992.00
2018-09-25T06:43:57.019Z,1004.00
2018-09-25T06:44:57.050Z,1004.00
2018-09-25T06:45:57.029Z,1004.00
2018-09-25T06:46:58.278Z,996.00
2018-09-25T06:47:56.981Z,1024.00
2018-09-25T06:48:56.865Z,1024.00
2018-09-25T06:49:56.939Z,1032.00
2018-09-25T06:50:56.819Z,1024.00
2018-09-25T06:51:56.788Z,1036.00
2018-09-25T06:52:57.072Z,1040.00
2018-09-25T07:00:56.625Z,1076.00
2018-09-25T07:01:56.609Z,1068.00
2018-09-25T07:04:56.629Z,1056.00
2018-09-25T07:25:56.101Z,1376.00
2018-09-25T07:26:56.077Z,1396.00
2018-09-25T07:27:56.110Z,1392.00
2018-09-25T07:28:56.087Z,1424.00
2018-09-25T07:29:56.013Z,1460.00
2018-09-25T07:30:56.054Z,1420.00
2018-09-25T07:35:55.885Z,1476.00
2018-09-25T07:36:55.899Z,1532.00
2018-09-25T07:37:56.146Z,1512.00
2018-09-25T07:38:55.849Z,1528.00
2018-09-25T07:39:55.803Z,1564.00
2018-09-25T07:43:56.033Z,1616.00
2018-09-25T07:44:55.713Z,1628.00
2018-09-25T07:45:55.722Z,1636.00
2018-09-25T07:46:55.729Z,1644.00
2018-09-25T07:47:55.658Z,1636.00
2018-09-25T07:48:55.644Z,1636.00
2018-09-25T07:49:55.920Z,1652.00
2018-09-25T07:50:55.598Z,1680.00
2018-09-25T07:51:55.587Z,1648.00
2018-09-25T07:52:55.605Z,1672.00
2018-09-25T07:55:55.866Z,1716.00
2018-09-25T07:57:55.458Z,1748.00
2018-09-25T07:58:55.741Z,1768.00
2018-09-25T07:59:55.419Z,1764.00
2018-09-25T08:00:55.410Z,1748.00
2018-09-25T08:03:55.351Z,1836.00
2018-09-25T08:05:55.318Z,1828.00
2018-09-25T08:06:55.291Z,1864.00
2018-09-25T08:07:55.274Z,1888.00
2018-09-25T08:08:55.575Z,1936.00
2018-09-25T08:09:55.244Z,1968.00
2018-09-25T08:10:55.283Z,1956.00
2018-09-25T08:11:55.216Z,1980.00
2018-09-25T08:12:55.194Z,1992.00
2018-09-25T08:13:55.172Z,2024.00
2018-09-25T08:16:55.227Z,2104.00
2018-09-25T08:18:55.082Z,2116.00
2018-09-25T08:19:55.071Z,2200.00
2018-09-25T08:20:55.104Z,2208.00
2018-09-25T08:21:55.033Z,2180.00
2018-09-25T08:22:55.355Z,2164.00
2018-09-25T08:23:55.038Z,2284.00
2018-09-25T08:24:54.977Z,2332.00
2018-09-25T08:25:54.991Z,2376.00
2018-09-25T08:27:54.922Z,2440.00
2018-09-25T08:28:55.251Z,2504.00
2018-09-25T08:32:07.580Z,2524.00
2018-09-25T08:32:54.834Z,2584.00
2018-09-25T08:33:54.816Z,2604.00
2018-09-25T08:35:55.092Z,2660.00
2018-09-25T08:38:54.883Z,2732.00
2018-09-25T08:39:54.724Z,2732.00
2018-09-25T08:40:54.756Z,2756.00
2018-09-25T08:41:54.988Z,2804.00
2018-09-25T08:43:54.670Z,2824.00
2018-09-25T08:51:54.540Z,3048.00
2018-09-25T08:52:54.576Z,3040.00
2018-09-25T08:54:54.784Z,2988.00
2018-09-25T08:57:54.495Z,3016.00
2018-09-25T08:58:54.473Z,2996.00
2018-09-25T08:59:54.503Z,3000.00
2018-09-25T09:01:54.668Z,2996.00
2018-09-25T09:02:54.361Z,2852.00
2018-09-25T09:03:54.345Z,2864.00
2018-09-25T09:04:54.669Z,2916.00
2018-09-25T09:05:54.326Z,2836.00
2018-09-25T09:06:54.304Z,2900.00
2018-09-25T09:07:54.591Z,2956.00
2018-09-25T09:08:54.265Z,3092.00
2018-09-25T09:09:54.268Z,3252.00
2018-09-25T09:10:54.282Z,3044.00
2018-09-25T09:11:54.228Z,3132.00
2018-09-25T09:12:54.207Z,3228.00
2018-09-25T09:13:54.495Z,3276.00
2018-09-25T09:14:54.178Z,3344.00
2018-09-25T09:15:54.211Z,3348.00
2018-09-25T09:17:54.757Z,3812.00
2018-09-25T09:19:54.451Z,3688.00
2018-09-25T09:24:54.031Z,4108.00
2018-09-25T09:25:54.324Z,4344.00
2018-09-25T09:26:54.000Z,2876.00
2018-09-25T09:28:54.035Z,3424.00
2018-09-25T09:30:53.967Z,4048.00
2018-09-25T09:31:54.251Z,4844.00
2018-09-25T09:32:53.925Z,5332.00
2018-09-25T09:33:53.921Z,5560.00
2018-09-25T09:34:53.944Z,7684.00
2018-09-25T09:35:53.951Z,6648.00
2018-09-25T09:36:53.874Z,6832.00
2018-09-25T09:37:54.157Z,6460.00
2018-09-25T09:38:53.834Z,5780.00
2018-09-25T09:40:53.914Z,4908.00
2018-09-25T09:41:53.993Z,6932.00
2018-09-25T09:43:54.091Z,5708.00
2018-09-25T09:44:53.758Z,3860.00
2018-09-25T09:45:53.751Z,8468.00
2018-09-25T09:46:53.861Z,43616.00
2018-09-25T09:47:53.949Z,13792.00
2018-09-25T09:48:53.710Z,7940.00
2018-09-25T09:49:53.767Z,12192.00
2018-09-25T09:50:53.995Z,8588.00
2018-09-25T09:51:53.816Z,12704.00
2018-09-25T09:52:53.721Z,5836.00
2018-09-25T09:53:53.679Z,6812.00
2018-09-25T09:54:53.642Z,6320.00
2018-09-25T09:55:53.613Z,8404.00
2018-09-25T09:56:53.922Z,6120.00
2018-09-25T09:57:53.607Z,5860.00
2018-09-25T09:58:53.631Z,4992.00
2018-09-25T09:59:53.811Z,4408.00
2018-09-25T10:00:53.572Z,3584.00
2018-09-25T10:01:53.538Z,3100.00
2018-09-25T10:02:53.843Z,3072.00
2018-09-25T10:03:53.763Z,7004.00
2018-09-25T10:04:54.023Z,7324.00
2018-09-25T10:05:53.515Z,8336.00
2018-09-25T10:06:53.691Z,7592.00
2018-09-25T10:07:53.466Z,10060.00
2018-09-25T10:08:53.454Z,9356.00
2018-09-25T10:09:53.737Z,11016.00
2018-09-25T10:10:53.483Z,11104.00
2018-09-25T10:11:53.417Z,13344.00
2018-09-25T10:12:53.423Z,7228.00
2018-09-25T10:13:53.391Z,10128.00
2018-09-25T10:14:53.489Z,5432.00
2018-09-25T10:15:53.701Z,6564.00
2018-09-25T10:16:53.411Z,5492.00
2018-09-25T10:17:53.354Z,5764.00
2018-09-25T10:18:53.500Z,5804.00
2018-09-25T10:19:53.388Z,11032.00
2018-09-25T10:21:53.343Z,27168.00
2018-09-25T10:22:53.676Z,20512.00
2018-09-25T10:27:53.246Z,28928.00
2018-09-25T10:28:53.297Z,6084.00
2018-09-25T10:29:53.514Z,5848.00
2018-09-25T10:30:53.228Z,6476.00
2018-09-25T10:31:53.219Z,7552.00
2018-09-25T10:32:53.528Z,6028.00
2018-09-25T10:33:53.435Z,5188.00
2018-09-25T10:34:53.216Z,6620.00
2018-09-25T10:35:53.451Z,4628.00
2018-09-25T10:36:53.157Z,4700.00
2018-09-25T10:37:53.142Z,21184.00
2018-09-25T10:38:53.117Z,20192.00
2018-09-25T10:39:53.305Z,20288.00
2018-09-25T10:40:53.147Z,19680.00
2018-09-25T10:41:53.385Z,19168.00
2018-09-25T10:42:53.078Z,14944.00
2018-09-25T10:43:53.172Z,3284.00
2018-09-25T10:44:53.096Z,2768.00
2018-09-25T10:45:53.032Z,3240.00
2018-09-25T10:46:53.080Z,3476.00
2018-09-25T10:47:53.331Z,4844.00
2018-09-25T10:48:52.994Z,17280.00
2018-09-25T10:49:53.050Z,19296.00
2018-09-25T10:50:53.109Z,12412.00
2018-09-25T10:51:52.964Z,6256.00
2018-09-25T10:52:53.421Z,6288.00
2018-09-25T10:53:53.307Z,6684.00
2018-09-25T10:54:52.928Z,6808.00
2018-09-25T10:55:53.528Z,6652.00
2018-09-25T10:56:52.905Z,6256.00
2018-09-25T10:57:52.939Z,6728.00
2018-09-25T10:58:52.949Z,6516.00
2018-09-25T10:59:53.173Z,5344.00
2018-09-25T11:00:52.959Z,5616.00
2018-09-25T11:01:52.849Z,6012.00
2018-09-25T11:02:53.064Z,44800.00
2018-09-25T11:03:53.073Z,33504.00
2018-09-25T11:06:52.848Z,35200.00
2018-09-25T11:07:52.837Z,42048.00
2018-09-25T11:08:52.760Z,42880.00
2018-09-25T11:09:52.814Z,17216.00
2018-09-25T11:10:52.811Z,46816.00
2018-09-25T11:11:52.736Z,47200.00
2018-09-25T11:12:53.085Z,49824.00
2018-09-25T11:16:52.732Z,42272.00
2018-09-25T11:17:52.693Z,10268.00
2018-09-25T11:18:52.720Z,35264.00
2018-09-25T11:19:53.004Z,47232.00
2018-09-25T11:26:52.721Z,49120.00
2018-09-25T11:27:52.584Z,7184.00
2018-09-25T11:29:52.610Z,6500.00
2018-09-25T11:31:52.544Z,4552.00
2018-09-25T11:32:52.960Z,4716.00
2018-09-25T11:33:52.557Z,5220.00
2018-09-25T11:36:52.542Z,8872.00
2018-09-25T11:37:52.466Z,16640.00
2018-09-25T11:38:52.773Z,6828.00
2018-09-25T11:39:52.456Z,5956.00
2018-09-25T11:41:52.433Z,7092.00
2018-09-25T11:42:52.687Z,6628.00
2018-09-25T11:43:52.650Z,5676.00
2018-09-25T11:44:52.720Z,5648.00
2018-09-25T11:45:52.697Z,5796.00
2018-09-25T11:46:52.497Z,6544.00
2018-09-25T11:47:52.581Z,7560.00
2018-09-25T11:48:52.416Z,8184.00
2018-09-25T11:49:52.376Z,22976.00
2018-09-25T11:50:52.839Z,49440.00
2018-09-25T11:51:52.640Z,51360.00
2018-09-25T11:52:52.679Z,13544.00
2018-09-25T11:53:52.569Z,11804.00
2018-09-25T11:54:52.571Z,9936.00
2018-09-25T11:55:52.292Z,11752.00
2018-09-25T11:56:52.257Z,23072.00
2018-09-25T11:57:52.554Z,8512.00
2018-09-25T11:58:52.372Z,7952.00
2018-09-25T11:59:52.221Z,8736.00
2018-09-25T12:01:52.239Z,10048.00
2018-09-25T12:02:52.733Z,7912.00
2018-09-25T12:03:55.635Z,6024.00
2018-09-25T12:04:52.161Z,6044.00
2018-09-25T12:05:52.227Z,7276.00
2018-09-25T12:06:52.212Z,6984.00
2018-09-25T12:07:52.968Z,6536.00
2018-09-25T12:08:52.408Z,6628.00
2018-09-25T12:09:52.394Z,10960.00
2018-09-25T12:10:52.188Z,33632.00
2018-09-25T12:11:52.128Z,48736.00
2018-09-25T12:12:52.150Z,48288.00
2018-09-25T12:13:52.092Z,6764.00
2018-09-25T12:15:52.330Z,47488.00
2018-09-25T12:16:52.008Z,48480.00
2018-09-25T12:17:52.028Z,33696.00
2018-09-25T12:18:52.031Z,43328.00
2018-09-25T12:19:52.095Z,7436.00
2018-09-25T12:20:52.500Z,7668.00
2018-09-25T12:21:52.252Z,7560.00
2018-09-25T12:22:51.935Z,7752.00
2018-09-25T12:24:52.008Z,6312.00
2018-09-25T12:25:51.948Z,6224.00
2018-09-25T12:26:51.958Z,6628.00
2018-09-25T12:27:52.180Z,6744.00
2018-09-25T12:28:51.868Z,6560.00
2018-09-25T12:29:51.861Z,6636.00
2018-09-25T12:30:51.898Z,6176.00
2018-09-25T12:31:51.838Z,6400.00
2018-09-25T12:32:51.849Z,7144.00
2018-09-25T12:33:52.140Z,6700.00
2018-09-25T12:34:51.796Z,5824.00
2018-09-25T12:35:52.148Z,5364.00
2018-09-25T12:36:51.843Z,5152.00
2018-09-25T12:37:51.900Z,4420.00
2018-09-25T12:38:51.785Z,3560.00
2018-09-25T12:39:52.035Z,2904.00
2018-09-25T12:40:51.739Z,2652.00
2018-09-25T12:41:51.736Z,2288.00
2018-09-25T12:42:51.750Z,2228.00
2018-09-25T12:43:51.699Z,2728.00
2018-09-25T12:44:51.761Z,3548.00
2018-09-25T12:45:52.226Z,3612.00
2018-09-25T12:46:51.691Z,3792.00
2018-09-25T12:47:51.629Z,4124.00
2018-09-25T12:48:51.701Z,5332.00
2018-09-25T12:50:51.612Z,5472.00
2018-09-25T12:51:51.880Z,4984.00
2018-09-25T12:52:51.576Z,13824.00
2018-09-25T12:53:51.629Z,13184.00
2018-09-25T12:54:51.680Z,9728.00
2018-09-25T12:55:51.524Z,7080.00
2018-09-25T12:56:51.510Z,8660.00
2018-09-25T12:57:51.803Z,6500.00
2018-09-25T12:58:51.489Z,6536.00
2018-09-25T12:59:51.475Z,6528.00
2018-09-25T13:00:51.508Z,6568.00
2018-09-25T13:01:51.447Z,7100.00
2018-09-25T13:03:51.768Z,9520.00
2018-09-25T13:04:51.459Z,7532.00
2018-09-25T13:05:51.420Z,13216.00
2018-09-25T13:09:51.636Z,6652.00
2018-09-25T13:10:51.341Z,6388.00
2018-09-25T13:11:51.343Z,6380.00
2018-09-25T13:12:51.359Z,7644.00
2018-09-25T13:13:51.304Z,6044.00
2018-09-25T13:14:51.357Z,11552.00
2018-09-25T13:15:51.682Z,11616.00
2018-09-25T13:16:51.252Z,11024.00
2018-09-25T13:17:51.279Z,10964.00
2018-09-25T13:18:51.308Z,10056.00
2018-09-25T13:19:51.214Z,10748.00
2018-09-25T13:20:51.249Z,10396.00
2018-09-25T13:21:51.506Z,10120.00
2018-09-25T13:22:51.183Z,9528.00
2018-09-25T13:23:51.270Z,6176.00
2018-09-25T13:24:51.216Z,5972.00
2018-09-25T13:25:51.141Z,6556.00
2018-09-25T13:26:51.787Z,6548.00
2018-09-25T13:27:53.553Z,6128.00
2018-09-25T13:29:51.816Z,5288.00
2018-09-25T13:30:51.840Z,4812.00
2018-09-25T13:31:51.816Z,4680.00
2018-09-25T13:32:51.182Z,4400.00
2018-09-25T13:33:51.443Z,4100.00
2018-09-25T13:34:51.069Z,3880.00
2018-09-25T13:35:51.031Z,3720.00
2018-09-25T13:36:51.085Z,4820.00
2018-09-25T13:37:51.228Z,3912.00
2018-09-25T13:38:51.005Z,6648.00
2018-09-25T13:39:51.279Z,4636.00
2018-09-25T13:40:51.739Z,8844.00
2018-09-25T13:41:50.977Z,8684.00
2018-09-25T13:42:51.125Z,8312.00
2018-09-25T13:44:50.923Z,6988.00
2018-09-25T13:45:51.704Z,10264.00
2018-09-25T13:46:50.974Z,7448.00
2018-09-25T13:47:50.992Z,6316.00
2018-09-25T13:48:50.915Z,9196.00
2018-09-25T13:50:50.895Z,4812.00
2018-09-25T13:51:51.128Z,4496.00
2018-09-25T13:52:50.817Z,4280.00
2018-09-25T13:53:50.942Z,4368.00
2018-09-25T13:55:50.879Z,5020.00
2018-09-25T13:56:50.786Z,5128.00
2018-09-25T13:57:51.079Z,6812.00
2018-09-25T13:58:50.813Z,4660.00
2018-09-25T13:59:50.729Z,6892.00
2018-09-25T14:00:50.718Z,4076.00
2018-09-25T14:01:50.854Z,3588.00
2018-09-25T14:02:50.736Z,3220.00
2018-09-25T14:03:51.031Z,3092.00
2018-09-25T14:04:50.739Z,2948.00
2018-09-25T14:05:50.676Z,2672.00
2018-09-25T14:06:50.665Z,2400.00
2018-09-25T14:07:50.698Z,2188.00
2018-09-25T14:08:50.747Z,2108.00
2018-09-25T14:09:50.953Z,1904.00
2018-09-25T14:10:50.585Z,1824.00
2018-09-25T14:11:50.640Z,1740.00
2018-09-25T14:12:50.550Z,1712.00
2018-09-25T14:13:50.593Z,1768.00
2018-09-25T14:15:50.825Z,2036.00
2018-09-25T14:16:50.599Z,1824.00
2018-09-25T14:17:50.504Z,1776.00
2018-09-25T14:18:50.479Z,1784.00
2018-09-25T14:19:50.556Z,1904.00
2018-09-25T14:20:50.503Z,1836.00
2018-09-25T14:21:51.702Z,1916.00
2018-09-25T14:22:51.766Z,2732.00
2018-09-25T14:23:51.258Z,4060.00
2018-09-25T14:24:51.319Z,4060.00
2018-09-25T14:25:53.597Z,4020.00
2018-09-25T14:27:50.660Z,3040.00
2018-09-25T14:28:50.680Z,3512.00
2018-09-25T14:29:50.307Z,3696.00
2018-09-25T14:30:50.385Z,4232.00
2018-09-25T14:31:50.355Z,4128.00
2018-09-25T14:32:50.270Z,4120.00
2018-09-25T14:33:50.549Z,4044.00
2018-09-25T14:34:50.338Z,4048.00
2018-09-25T14:37:50.300Z,4016.00
2018-09-25T14:38:50.542Z,4156.00
2018-09-25T14:39:50.844Z,4160.00
2018-09-25T14:40:50.496Z,4132.00
2018-09-25T14:41:50.482Z,4136.00
2018-09-25T14:42:50.643Z,4148.00
2018-09-25T14:43:51.054Z,4220.00
2018-09-25T14:44:50.194Z,4124.00
2018-09-25T14:45:50.442Z,4216.00
2018-09-25T14:46:50.080Z,4340.00
2018-09-25T14:47:50.201Z,4552.00
2018-09-25T14:48:50.171Z,4688.00
2018-09-25T14:49:50.127Z,4592.00
2018-09-25T14:51:50.378Z,4888.00
2018-09-25T14:52:50.033Z,4720.00
2018-09-25T14:53:50.049Z,5012.00
2018-09-25T14:54:50.018Z,4356.00
2018-09-25T14:55:50.078Z,4388.00
2018-09-25T14:56:49.959Z,4600.00
2018-09-25T14:57:50.318Z,4300.00
2018-09-25T14:58:49.939Z,4340.00
2018-09-25T14:59:49.937Z,4196.00
2018-09-25T15:00:50.101Z,3840.00
2018-09-25T15:01:49.967Z,3844.00
2018-09-25T15:02:49.890Z,2612.00